Portada
METAR-TAF:

METAR-TAF

Aeroports :

Dar es Salaam, Tanzània

latitud: 06-52S, longitud: 039-12E, altitud: 55 m

Observació

L'informe es va fer fa 1 hora i 39 minuts, a les 04:00 UTC
Vent calma
Temperatura 25°C
Humitat 94%
Pressió 1014 hPa
Visibilitat 10 km o més
Núvols disperses a una alçada de 1100 ft
Cel ennuvolat a una alçada de 9000 ft

METAR: HTDA 230400Z 00000KT 9999 SCT011 BKN090 25/24 Q1014 NOSIG

Hora: 08:39 (05:39 UTC)

Pronòstic

L'informe es va fer fa 6 hores i 39 minuts, a les 23:00 UTC
Pronòstic vàlid del 23 a les 00 UTC al 24 a les 06 UTC
Vent kt del Nord
Visibilitat 10 km o més
Núvols disperses a una alçada de 1000 ft
Evolucionant progressivament
l' 23 a les 08 UTC al 23 a les 11 UTC
Vent 10 kt del Sud-Est
Cel ennuvolat a una alçada de 2800 ft

TAF: HTDA 222300Z 2300/2406 00000KT 9999 SCT010 BECMG 2308/2311 14010KT BKN028

Observacions i pronòstics meteorològics de més de 4000 aeroports (METAR i TAF).

Les estacions disponibles són els punts grocs i vermells al mapa.

Posi el ratolí al punt desitjat per veure el nom de l'estació.

Feu clic per veure les observacions i els pronòstics meteorològics.

Per canviar el mapa: feu clic els botons verds amb una creu de color negre per apropar; al botó verd amb un guió per allunyar la imatge; o en les fletxes verdes per a mapes adjacents.


METAR-TAF: